Time;durP1;ratioP1;P1;durP2;ratioP2;P2;SDS_P1;SDS_P2;PMS_P1;PMS_P2;Temp;Humidity;BMP_temperature;BMP_pressure;BME280_temperature;BME280_humidity;BME280_pressure;Samples;Min_cycle;Max_cycle;Signal;HPM_P1;HPM_P2
2023/10/12 00:00:48;;;;;;;11.65;3.63;;;;;;;-145.69;55.67;52036.44;5101983;28;20584;-82
2023/10/12 00:03:17;;;;;;;9.13;3.28;;;;;;;-145.69;55.24;52028.53;5096582;28;20195;-82
2023/10/12 00:05:46;;;;;;;10.77;3.50;;;;;;;-145.69;55.24;52048.31;5105165;28;20193;-82
2023/10/12 00:08:30;;;;;;;12.30;3.92;;;;;;;-145.69;55.01;52028.53;5098929;28;20195;-82
2023/10/12 00:10:57;;;;;;;7.35;3.45;;;;;;;-145.69;54.91;51998.81;5098234;28;20200;-82
2023/10/12 00:13:29;;;;;;;15.32;3.70;;;;;;;-145.69;54.43;52020.59;5107332;28;20273;-82
2023/10/12 00:15:57;;;;;;;7.75;3.22;;;;;;;-145.69;54.33;52032.47;5107035;28;20289;-82
2023/10/12 00:18:24;;;;;;;15.18;3.60;;;;;;;-145.69;54.37;52036.44;5104680;28;20236;-82
2023/10/12 00:20:54;;;;;;;7.45;3.20;;;;;;;-145.69;54.58;52028.53;5099577;28;20209;-82
2023/10/12 00:23:20;;;;;;;11.82;3.15;;;;;;;-145.69;54.11;52032.47;5096330;28;20685;-82
2023/10/12 00:25:58;;;;;;;5.80;2.97;;;;;;;-145.69;54.22;52016.66;5097011;28;20230;-82
2023/10/12 00:28:29;;;;;;;12.10;3.70;;;;;;;-145.69;54.71;52014.66;5096629;28;20284;-82
2023/10/12 00:31:05;;;;;;;10.30;3.45;;;;;;;-145.69;54.50;52022.59;5096497;28;20288;-82
2023/10/12 00:33:31;;;;;;;11.55;4.05;;;;;;;-145.69;54.24;52066.16;5096776;28;20198;-82
2023/10/12 00:36:04;;;;;;;8.82;3.58;;;;;;;-145.69;53.54;52034.47;5095293;28;20637;-82
2023/10/12 00:38:32;;;;;;;8.73;3.45;;;;;;;-145.69;53.29;52036.44;5097879;28;20239;-82
2023/10/12 00:41:03;;;;;;;8.48;3.15;;;;;;;-145.69;53.44;52024.56;5103729;28;20249;-82
2023/10/12 00:43:36;;;;;;;9.93;3.70;;;;;;;-145.69;53.91;52022.59;5097724;28;20194;-82
2023/10/12 00:46:20;;;;;;;11.35;3.38;;;;;;;-145.69;53.17;52054.25;5098346;28;20205;-82
2023/10/12 00:49:10;;;;;;;13.43;3.47;;;;;;;-145.69;53.05;52012.69;5097908;28;20288;-82
2023/10/12 00:51:36;;;;;;;10.10;4.13;;;;;;;-145.69;53.32;52022.59;5093725;28;20251;-82
2023/10/12 00:54:04;;;;;;;7.15;3.20;;;;;;;-145.69;52.92;52024.56;5098062;28;20587;-82
2023/10/12 00:56:36;;;;;;;11.80;3.67;;;;;;;-145.69;52.85;52066.16;5096604;28;20647;-82
2023/10/12 00:59:03;;;;;;;8.02;3.30;;;;;;;-145.69;52.34;52040.41;5101985;28;20218;-82
2023/10/12 01:01:32;;;;;;;8.73;3.65;;;;;;;-145.69;52.82;52036.44;5102265;28;20240;-82
2023/10/12 01:04:15;;;;;;;11.35;3.15;;;;;;;-145.69;53.75;51994.88;5105564;28;20247;-82
2023/10/12 01:06:47;;;;;;;10.88;3.22;;;;;;;-145.69;52.57;52012.69;5088649;28;20198;-82
2023/10/12 01:09:19;;;;;;;10.27;3.22;;;;;;;-145.69;52.06;52012.69;5096962;28;20198;-82
2023/10/12 01:11:52;;;;;;;6.97;2.83;;;;;;;-145.69;51.92;52036.44;5096624;28;20202;-82
2023/10/12 01:14:26;;;;;;;11.50;3.67;;;;;;;-145.69;51.94;52032.47;5098016;28;20197;-82
2023/10/12 01:16:58;;;;;;;11.60;3.10;;;;;;;-145.69;51.62;52028.53;5097358;28;20198;-83
2023/10/12 01:19:44;;;;;;;8.75;3.30;;;;;;;-145.69;51.93;52000.81;5101880;28;20206;-82
2023/10/12 01:22:13;;;;;;;9.73;3.83;;;;;;;-145.69;52.22;52048.31;5076127;28;20226;-82
2023/10/12 01:24:44;;;;;;;7.93;3.65;;;;;;;-145.69;53.15;51996.84;5092436;28;20287;-83
2023/10/12 01:27:13;;;;;;;5.97;2.72;;;;;;;-145.69;53.48;52024.56;5098957;28;20228;-83
2023/10/12 01:29:41;;;;;;;12.32;3.40;;;;;;;-145.69;53.28;52034.47;5094860;28;20586;-82
2023/10/12 01:32:27;;;;;;;5.60;2.78;;;;;;;-145.69;53.35;52012.69;5101551;28;20206;-83
2023/10/12 01:34:57;;;;;;;9.00;3.22;;;;;;;-145.69;52.94;52030.50;5102071;28;20224;-83
2023/10/12 01:37:25;;;;;;;8.77;2.97;;;;;;;-145.69;53.15;52008.72;5100849;28;20209;-82
2023/10/12 01:40:00;;;;;;;6.15;3.28;;;;;;;-145.69;53.25;52087.94;5104782;28;20203;-83
2023/10/12 01:45:31;;;;;;;13.45;3.33;;;;;;;-145.69;54.23;52040.41;5104755;28;20595;-82
2023/10/12 01:48:06;;;;;;;6.75;3.08;;;;;;;-145.69;53.80;52016.66;5105726;28;20201;-82
2023/10/12 01:50:34;;;;;;;9.32;3.20;;;;;;;-145.69;52.79;52048.31;5105811;28;20228;-83
2023/10/12 01:53:07;;;;;;;10.82;3.38;;;;;;;-145.69;52.67;52030.50;5109895;28;20198;-83
2023/10/12 01:55:35;;;;;;;6.43;2.80;;;;;;;-145.69;52.64;52046.34;5103620;28;20556;-82
2023/10/12 01:58:04;;;;;;;15.38;3.90;;;;;;;-145.69;53.32;52034.47;5106674;28;20553;-83
2023/10/12 02:00:39;;;;;;;7.13;3.00;;;;;;;-145.69;53.25;52046.34;5099859;28;20629;-83
2023/10/12 02:03:20;;;;;;;10.35;3.60;;;;;;;-145.69;53.61;52064.16;5104083;28;20225;-83
2023/10/12 02:05:56;;;;;;;11.57;3.40;;;;;;;-145.69;53.25;52046.34;5107223;28;20197;-83
2023/10/12 02:08:27;;;;;;;9.27;3.28;;;;;;;-145.69;53.67;52016.66;5106294;28;20206;-83
2023/10/12 02:10:57;;;;;;;13.73;4.03;;;;;;;-145.69;54.09;52046.34;5085117;28;20598;-83
2023/10/12 02:13:24;;;;;;;8.73;3.72;;;;;;;-145.69;53.58;52036.44;5097555;28;20228;-83
2023/10/12 02:15:51;;;;;;;6.60;3.40;;;;;;;-145.69;53.90;52020.59;5099602;28;20568;-83
2023/10/12 02:18:20;;;;;;;10.48;3.45;;;;;;;-145.69;53.65;52040.41;5101050;28;20259;-82
2023/10/12 02:21:07;;;;;;;15.85;3.30;;;;;;;-145.69;53.45;52054.25;5100548;28;20205;-83
2023/10/12 02:23:38;;;;;;;10.98;3.83;;;;;;;-145.69;53.11;52048.31;5103263;28;20234;-84
2023/10/12 02:26:29;;;;;;;12.50;3.28;;;;;;;-145.69;53.40;52038.44;5097179;28;20664;-83
2023/10/12 02:29:06;;;;;;;9.65;3.38;;;;;;;-145.69;53.50;52044.38;5097102;28;20202;-82
2023/10/12 02:31:38;;;;;;;5.95;3.05;;;;;;;-145.69;53.28;52020.59;5099407;28;20212;-83
2023/10/12 02:34:05;;;;;;;11.25;2.97;;;;;;;-145.69;53.39;52038.44;5099707;28;20202;-83
2023/10/12 02:36:32;;;;;;;7.25;3.58;;;;;;;-145.69;52.84;52040.41;5099459;28;20293;-83
2023/10/12 02:39:10;;;;;;;7.53;3.20;;;;;;;-145.69;53.74;52032.47;5101668;28;20210;-83
2023/10/12 02:41:37;;;;;;;11.40;3.67;;;;;;;-145.69;53.32;52048.31;5095420;28;20233;-83
2023/10/12 02:44:14;;;;;;;8.77;3.97;;;;;;;-145.69;53.28;52054.25;5094861;28;20205;-84
2023/10/12 02:46:48;;;;;;;9.95;3.40;;;;;;;-145.69;53.48;52046.34;5094591;28;20565;-84
2023/10/12 02:49:16;;;;;;;7.65;3.55;;;;;;;-145.69;53.98;52044.38;5093244;28;20194;-83
2023/10/12 02:51:44;;;;;;;13.93;3.78;;;;;;;-145.69;55.74;52028.53;5095631;28;20205;-83
2023/10/12 02:54:15;;;;;;;7.35;3.22;;;;;;;-145.69;55.48;52018.63;5096761;28;20294;-83
2023/10/12 02:56:42;;;;;;;6.88;3.47;;;;;;;-145.69;55.35;52022.59;5100030;28;20255;-83
2023/10/12 02:59:10;;;;;;;11.57;3.83;;;;;;;-145.69;55.29;52040.41;5099286;28;20645;-83
2023/10/12 03:01:39;;;;;;;13.15;3.60;;;;;;;-145.69;55.29;52032.47;5101818;28;20210;-83
2023/10/12 03:04:11;;;;;;;7.35;3.15;;;;;;;-145.69;55.62;52028.53;5102046;28;20604;-83
2023/10/12 03:06:59;;;;;;;14.45;3.85;;;;;;;-145.69;54.80;52014.66;5104755;28;20256;-83
2023/10/12 03:09:36;;;;;;;9.75;3.40;;;;;;;-145.69;55.23;52046.34;5104182;28;20660;-82
2023/10/12 03:12:03;;;;;;;13.88;3.95;;;;;;;-145.69;55.40;52048.31;5105627;28;20208;-83
2023/10/12 03:14:30;;;;;;;8.90;3.60;;;;;;;-145.69;54.98;52036.44;5105086;28;20201;-83
2023/10/12 03:17:02;;;;;;;12.77;3.78;;;;;;;-145.69;55.29;52068.13;5104171;28;20284;-82
2023/10/12 03:19:35;;;;;;;9.35;3.50;;;;;;;-145.69;55.15;52048.31;5102992;28;20198;-82
2023/10/12 03:22:25;;;;;;;13.20;4.50;;;;;;;-145.69;55.03;52038.44;5101711;28;20226;-82
2023/10/12 03:24:53;;;;;;;12.38;3.95;;;;;;;-145.69;54.72;52068.13;5098186;28;20290;-83
2023/10/12 03:27:24;;;;;;;8.20;3.47;;;;;;;-145.69;54.79;52052.28;5100599;28;20198;-82
2023/10/12 03:30:08;;;;;;;13.50;3.55;;;;;;;-145.69;54.88;52052.28;5099470;28;20205;-82
2023/10/12 03:32:36;;;;;;;11.43;3.72;;;;;;;-145.69;54.68;52026.53;5101370;28;20206;-82
2023/10/12 03:35:04;;;;;;;9.68;3.58;;;;;;;-145.69;54.41;52020.59;5102232;28;20667;-83
2023/10/12 03:37:47;;;;;;;9.35;3.63;;;;;;;-145.69;54.33;52020.59;5095416;28;20202;-83
2023/10/12 03:43:09;;;;;;;12.85;3.28;;;;;;;-145.69;54.99;52024.56;5073490;28;20229;-83
2023/10/12 03:45:39;;;;;;;10.32;3.83;;;;;;;-145.69;54.63;52034.47;5076804;28;20212;-83
2023/10/12 03:48:24;;;;;;;11.50;3.85;;;;;;;-145.69;54.70;52012.69;5079440;28;20294;-83
2023/10/12 03:51:11;;;;;;;10.30;3.60;;;;;;;-145.69;54.28;52042.38;5090498;28;20606;-83
2023/10/12 03:53:45;;;;;;;9.90;3.33;;;;;;;-145.69;54.35;52020.59;5093450;28;20205;-83
2023/10/12 03:56:14;;;;;;;8.93;3.70;;;;;;;-145.69;54.37;51996.84;5094116;28;20194;-83
2023/10/12 03:58:47;;;;;;;8.45;3.90;;;;;;;-145.69;53.78;52040.41;5092727;28;20206;-83
2023/10/12 04:01:23;;;;;;;14.88;3.88;;;;;;;-145.69;54.43;52016.66;5081078;28;20198;-84
2023/10/12 04:04:08;;;;;;;7.00;3.30;;;;;;;-145.69;54.18;52026.53;5092569;28;20233;-83
2023/10/12 04:07:04;;;;;;;12.57;3.42;;;;;;;-145.69;53.96;52050.31;5092941;28;20247;-83
2023/10/12 04:09:31;;;;;;;10.73;3.58;;;;;;;-145.69;54.23;52000.81;5090734;28;20194;-83
2023/10/12 04:12:11;;;;;;;13.48;3.75;;;;;;;-145.69;54.22;51988.91;5092893;28;20624;-83
2023/10/12 04:14:49;;;;;;;8.15;3.45;;;;;;;-145.69;54.54;52046.34;5092790;28;20533;-83
2023/10/12 04:17:34;;;;;;;12.10;3.70;;;;;;;-145.69;53.78;52048.31;5089203;28;20198;-83
2023/10/12 04:20:19;;;;;;;11.45;3.45;;;;;;;-145.69;53.52;52032.47;5084672;28;20220;-83
2023/10/12 04:25:46;;;;;;;11.88;3.40;;;;;;;-145.69;54.73;52008.72;5091733;28;20209;-83
2023/10/12 04:28:22;;;;;;;12.45;3.72;;;;;;;-145.69;54.25;52020.59;5092655;28;20201;-83
2023/10/12 04:33:51;;;;;;;8.15;3.58;;;;;;;-145.69;54.25;52010.69;5092621;28;20201;-83
2023/10/12 04:36:27;;;;;;;13.57;4.50;;;;;;;-145.69;55.93;52060.22;5092338;28;20206;-83
2023/10/12 04:39:11;;;;;;;10.43;3.85;;;;;;;-145.69;55.33;52056.25;5092584;28;20519;-83
2023/10/12 04:41:45;;;;;;;14.00;3.58;;;;;;;-145.69;55.06;52020.59;5090492;28;20201;-83
2023/10/12 04:44:39;;;;;;;13.77;4.38;;;;;;;-145.69;55.08;52008.72;5092572;28;20218;-83
2023/10/12 04:47:12;;;;;;;11.75;4.00;;;;;;;-145.69;54.86;52018.63;5092604;28;20202;-83
2023/10/12 04:49:54;;;;;;;25.50;8.77;;;;;;;-145.69;54.63;52018.63;5092201;28;20260;-83
2023/10/12 04:55:20;;;;;;;9.05;3.72;;;;;;;-145.69;55.24;52020.59;5089183;28;20205;-83
2023/10/12 04:57:50;;;;;;;21.30;9.85;;;;;;;-145.69;54.96;52054.25;5092603;28;20206;-82
2023/10/12 05:00:24;;;;;;;9.45;3.92;;;;;;;-145.69;55.69;52044.38;5091176;28;20195;-83
2023/10/12 05:02:58;;;;;;;8.75;3.92;;;;;;;-145.69;55.52;52018.63;5096011;28;20310;-83
2023/10/12 05:08:09;;;;;;;10.23;3.92;;;;;;;-145.69;56.09;52056.25;5078428;28;20191;-83
2023/10/12 05:10:47;;;;;;;11.10;4.18;;;;;;;-145.69;55.46;52040.41;5086663;28;20198;-83
2023/10/12 05:13:19;;;;;;;12.45;5.97;;;;;;;-145.69;55.21;52032.47;5077469;28;20683;-83
2023/10/12 05:15:55;;;;;;;12.50;4.95;;;;;;;-145.69;56.07;52048.31;5092513;28;20198;-83
2023/10/12 05:18:23;;;;;;;19.60;4.15;;;;;;;-145.69;55.85;52032.47;5095821;28;20189;-83
2023/10/12 05:20:49;;;;;;;8.90;3.53;;;;;;;-145.69;55.14;52074.06;5095580;28;20209;-83
2023/10/12 05:23:17;;;;;;;13.73;3.75;;;;;;;-145.69;54.51;52026.53;5095242;28;20265;-83
2023/10/12 05:25:53;;;;;;;12.80;3.88;;;;;;;-145.69;54.41;52042.38;5096327;28;20243;-82
2023/10/12 05:28:26;;;;;;;11.65;4.30;;;;;;;-145.69;56.71;52038.44;5097024;28;20494;-82
2023/10/12 05:30:59;;;;;;;12.25;3.92;;;;;;;-145.69;55.87;52016.66;5100634;28;20676;-82
2023/10/12 05:34:00;;;;;;;14.77;4.72;;;;;;;-145.69;54.28;52074.06;5110161;28;20193;-82
2023/10/12 05:36:28;;;;;;;17.85;4.25;;;;;;;-145.69;54.15;52028.53;5106460;28;20564;-83
2023/10/12 05:39:11;;;;;;;15.32;3.97;;;;;;;-145.69;54.44;52022.59;5105965;28;20252;-82
2023/10/12 05:41:44;;;;;;;12.98;3.92;;;;;;;-145.69;54.06;52014.66;5110199;28;20629;-83
2023/10/12 05:44:13;;;;;;;8.05;3.30;;;;;;;-145.69;53.58;52036.44;5110538;28;20255;-82
2023/10/12 05:46:45;;;;;;;11.75;4.07;;;;;;;-145.69;53.28;52040.41;5107854;28;20221;-83
2023/10/12 05:49:13;;;;;;;9.52;3.40;;;;;;;-145.69;53.53;52036.44;5109643;28;20701;-82
2023/10/12 05:51:44;;;;;;;11.77;3.95;;;;;;;-145.69;53.40;52016.66;5106199;28;20244;-81
2023/10/12 05:54:15;;;;;;;7.50;3.92;;;;;;;-145.69;53.26;52014.66;5108657;28;20194;-82
2023/10/12 05:56:43;;;;;;;21.10;4.25;;;;;;;-145.69;52.62;52038.44;5109209;28;20198;-82
2023/10/12 05:59:12;;;;;;;8.02;3.60;;;;;;;-145.69;52.93;52004.75;5103303;28;20210;-82
2023/10/12 06:01:39;;;;;;;7.85;3.25;;;;;;;-145.69;52.85;52020.59;5108181;28;20262;-82
2023/10/12 06:04:09;;;;;;;9.82;3.55;;;;;;;-145.69;52.87;52032.47;5107290;28;20218;-82
2023/10/12 06:06:41;;;;;;;19.48;3.92;;;;;;;-145.69;52.55;52030.50;5104380;28;20219;-82
2023/10/12 06:09:20;;;;;;;11.52;3.47;;;;;;;-145.69;52.04;52014.66;5107924;28;20198;-82
2023/10/12 06:11:47;;;;;;;9.32;4.05;;;;;;;-145.69;52.43;52032.47;5106698;28;20728;-82
2023/10/12 06:14:19;;;;;;;9.57;3.53;;;;;;;-145.69;51.76;52002.78;5109110;28;20202;-82
2023/10/12 06:16:54;;;;;;;8.38;3.67;;;;;;;-145.69;51.03;51979.03;5110915;28;20261;-81
2023/10/12 06:19:25;;;;;;;10.32;4.47;;;;;;;-145.69;50.58;51988.91;5110839;28;20201;-82
2023/10/12 06:21:52;;;;;;;8.43;3.70;;;;;;;-145.69;50.75;52024.56;5089178;28;20195;-82
2023/10/12 06:24:33;;;;;;;8.45;4.28;;;;;;;-145.69;50.14;52004.75;5088637;28;20726;-82
2023/10/12 06:27:11;;;;;;;9.82;3.55;;;;;;;-145.69;50.07;52004.75;5086455;28;20253;-82
2023/10/12 06:29:38;;;;;;;9.98;4.07;;;;;;;-145.69;49.80;51984.97;5103347;28;20267;-82
2023/10/12 06:32:16;;;;;;;8.50;3.72;;;;;;;-145.69;48.11;52030.50;5107693;28;20194;-82
2023/10/12 06:34:45;;;;;;;13.93;3.30;;;;;;;-145.69;48.27;52020.59;5108284;28;20210;-82
2023/10/12 06:37:49;;;;;;;12.02;3.40;;;;;;;-145.69;48.03;51979.03;5105637;28;20206;-82
2023/10/12 06:40:37;;;;;;;13.35;4.07;;;;;;;-145.69;47.45;51979.03;5103141;28;20253;-82
2023/10/12 06:45:54;;;;;;;14.95;3.78;;;;;;;-145.69;47.67;52014.66;5063706;28;20261;-82
2023/10/12 06:48:44;;;;;;;8.55;3.30;;;;;;;-145.69;46.92;51939.41;5102475;28;20202;-82
2023/10/12 06:51:11;;;;;;;11.40;3.60;;;;;;;-145.69;46.41;51957.25;5084221;28;20195;-82
2023/10/12 06:53:40;;;;;;;8.88;3.53;;;;;;;-145.69;45.32;51990.91;5081432;28;20209;-82
2023/10/12 06:56:27;;;;;;;8.52;3.55;;;;;;;-145.69;45.97;51992.88;5086914;28;20196;-82
2023/10/12 06:59:22;;;;;;;15.02;3.65;;;;;;;-145.69;44.93;51984.97;5102232;28;20206;-82
2023/10/12 07:02:09;;;;;;;8.98;3.42;;;;;;;-145.69;44.55;51981.00;5104587;28;20202;-83
2023/10/12 07:04:38;;;;;;;6.50;3.22;;;;;;;-145.69;44.77;51973.06;5095992;28;20232;-83
2023/10/12 07:07:10;;;;;;;7.40;2.67;;;;;;;-145.69;44.87;51984.97;5096741;28;20205;-81
2023/10/12 07:09:40;;;;;;;6.15;3.30;;;;;;;-145.69;45.21;51977.03;5097099;28;20194;-83
2023/10/12 07:12:09;;;;;;;8.25;3.45;;;;;;;-145.69;44.58;51973.06;5098219;28;20649;-83
2023/10/12 07:14:43;;;;;;;7.65;3.75;;;;;;;-145.69;43.86;51967.13;5097246;28;20732;-81
2023/10/12 07:17:10;;;;;;;11.82;3.40;;;;;;;-145.69;43.96;51961.19;5095282;28;20623;-83
2023/10/12 07:19:40;;;;;;;8.43;3.17;;;;;;;-145.69;42.86;51937.44;5100806;28;20637;-82
2023/10/12 07:22:10;;;;;;;9.15;3.40;;;;;;;-145.69;42.66;51955.25;5106372;28;20560;-83
2023/10/12 07:24:38;;;;;;;8.88;3.30;;;;;;;-145.69;42.26;51959.22;5106772;28;20240;-82
2023/10/12 07:27:11;;;;;;;9.68;3.67;;;;;;;-145.69;42.13;51953.28;5088644;28;20266;-82
2023/10/12 07:29:44;;;;;;;10.38;3.58;;;;;;;-145.69;42.14;51909.72;5092390;28;20284;-82
2023/10/12 07:32:26;;;;;;;10.07;3.58;;;;;;;-145.69;41.06;51939.41;5104117;28;20229;-82
2023/10/12 07:34:57;;;;;;;8.75;4.70;;;;;;;-145.69;40.78;51953.28;5104931;28;20702;-82
2023/10/12 07:37:27;;;;;;;8.43;3.45;;;;;;;-145.69;40.93;51897.84;5104974;28;20209;-82
2023/10/12 07:39:55;;;;;;;9.82;4.50;;;;;;;-145.69;40.90;51921.59;5102557;28;20229;-82
2023/10/12 07:42:27;;;;;;;15.77;4.75;;;;;;;-145.69;40.89;51903.78;5101817;28;20194;-82
2023/10/12 07:45:05;;;;;;;14.55;4.22;;;;;;;-145.69;40.39;51895.84;5104077;28;20221;-82
2023/10/12 07:47:40;;;;;;;16.38;4.30;;;;;;;-145.69;39.43;51937.44;5103139;28;20560;-82
2023/10/12 07:50:12;;;;;;;9.60;3.90;;;;;;;-145.69;39.84;51870.13;5101540;28;20530;-82
2023/10/12 07:52:46;;;;;;;7.93;3.53;;;;;;;-145.69;39.45;51911.69;5104487;28;20664;-82
2023/10/12 07:55:15;;;;;;;10.02;3.65;;;;;;;-145.69;39.80;51882.00;5103645;28;20213;-82
2023/10/12 07:57:42;;;;;;;7.18;3.97;;;;;;;-145.69;39.80;51905.75;5102134;28;20198;-83
2023/10/12 08:03:18;;;;;;;7.97;3.95;;;;;;;-145.69;39.43;51907.72;5057188;28;20748;-82
2023/10/12 08:05:45;;;;;;;10.68;4.00;;;;;;;-145.69;39.27;51897.84;5093140;28;20202;-83
2023/10/12 08:08:33;;;;;;;13.80;3.65;;;;;;;-145.69;38.79;51915.66;5099220;28;20224;-82
2023/10/12 08:11:00;;;;;;;6.97;3.50;;;;;;;-145.69;39.00;51893.88;5103683;28;20198;-82
2023/10/12 08:13:27;;;;;;;14.00;3.75;;;;;;;-145.69;38.50;51901.78;5102256;28;20229;-83
2023/10/12 08:16:04;;;;;;;12.55;3.58;;;;;;;-145.69;38.88;51903.78;5100822;28;20229;-83
2023/10/12 08:21:24;;;;;;;7.82;3.55;;;;;;;-145.69;38.10;51870.13;5097928;28;20204;-83
2023/10/12 08:23:57;;;;;;;11.35;3.63;;;;;;;-145.69;37.82;51838.44;5085489;28;20265;-83
2023/10/12 08:26:35;;;;;;;15.00;3.83;;;;;;;-145.69;37.73;51941.41;5077175;28;20203;-83
2023/10/12 08:29:09;;;;;;;7.15;3.50;;;;;;;-145.69;37.59;51899.81;5076918;28;20199;-83
2023/10/12 08:31:43;;;;;;;14.52;3.83;;;;;;;-145.69;37.80;51880.00;5093985;28;20206;-83
2023/10/12 08:34:41;;;;;;;8.88;3.30;;;;;;;-145.69;38.07;51866.16;5096077;28;20197;-82
2023/10/12 08:37:17;;;;;;;10.77;3.47;;;;;;;-145.69;37.60;51874.06;5097968;28;20611;-82
2023/10/12 08:40:06;;;;;;;9.02;3.40;;;;;;;-145.69;37.52;51870.13;5097035;28;20259;-82
2023/10/12 08:42:38;;;;;;;9.07;3.50;;;;;;;-145.69;37.95;51870.13;5098556;28;20209;-81
2023/10/12 08:45:11;;;;;;;10.13;4.05;;;;;;;-145.69;37.75;51874.06;5101205;28;20282;-81
2023/10/12 08:47:53;;;;;;;8.80;3.63;;;;;;;-145.69;37.83;51874.06;5102204;28;20201;-82
2023/10/12 08:53:19;;;;;;;18.30;3.78;;;;;;;-145.69;37.27;51860.22;5087544;28;20201;-82
2023/10/12 08:55:53;;;;;;;10.52;4.53;;;;;;;-145.69;37.75;51850.31;5098814;28;20197;-82
2023/10/12 08:58:31;;;;;;;8.07;3.50;;;;;;;-145.69;36.94;51880.00;5100417;28;20281;-82
2023/10/12 09:01:10;;;;;;;9.23;4.10;;;;;;;-145.69;37.34;51889.91;5099988;28;20190;-82
2023/10/12 09:03:44;;;;;;;9.55;3.60;;;;;;;-145.69;37.86;51850.31;5100714;28;20225;-82
2023/10/12 09:08:57;;;;;;;10.43;3.97;;;;;;;-145.69;37.01;51866.16;5098278;28;20251;-81
2023/10/12 09:11:33;;;;;;;7.32;3.38;;;;;;;-145.69;37.00;51878.03;5097632;28;20947;-82
2023/10/12 09:14:00;;;;;;;9.52;3.33;;;;;;;-145.69;36.79;51858.22;5099793;28;20226;-82
2023/10/12 09:16:31;;;;;;;14.75;3.80;;;;;;;-145.69;36.67;51846.34;5097558;28;20247;-81
2023/10/12 09:19:07;;;;;;;9.48;3.83;;;;;;;-145.69;36.75;51862.19;5097227;28;20218;-81
2023/10/12 09:21:41;;;;;;;7.53;3.47;;;;;;;-145.69;37.04;51842.38;5099021;28;20247;-81
2023/10/12 09:24:21;;;;;;;8.45;3.35;;;;;;;-145.69;36.68;51846.34;5098189;28;20241;-81
2023/10/12 09:26:57;;;;;;;9.52;3.38;;;;;;;-145.69;36.76;51842.38;5099730;28;20194;-82
2023/10/12 09:29:27;;;;;;;11.35;3.22;;;;;;;-145.69;36.52;51830.50;5099341;28;20591;-82
2023/10/12 09:32:14;;;;;;;11.80;2.88;;;;;;;-145.69;36.70;51874.06;5100335;28;20293;-82
2023/10/12 09:34:42;;;;;;;9.73;3.47;;;;;;;-145.69;36.50;51866.16;5099427;28;20673;-81
2023/10/12 09:37:16;;;;;;;11.27;3.60;;;;;;;-145.69;37.38;51834.47;5098138;28;20230;-82
2023/10/12 09:39:43;;;;;;;9.27;3.47;;;;;;;-145.69;37.15;51878.03;5100741;28;20186;-82
2023/10/12 09:42:22;;;;;;;10.50;3.40;;;;;;;-145.69;37.57;51891.88;5098388;28;20206;-82
2023/10/12 09:44:52;;;;;;;10.15;3.70;;;;;;;-145.69;37.21;51862.19;5100350;28;20245;-82
2023/10/12 09:47:25;;;;;;;11.93;4.00;;;;;;;-145.69;36.78;51897.84;5098805;28;20198;-82
2023/10/12 09:50:00;;;;;;;8.90;3.00;;;;;;;-145.69;36.14;51862.19;5097819;28;20198;-82
2023/10/12 09:52:46;;;;;;;10.43;3.00;;;;;;;-145.69;36.99;51850.31;5098889;28;20289;-82
2023/10/12 09:55:15;;;;;;;7.88;3.22;;;;;;;-145.69;36.39;51818.63;5099726;28;20216;-82
2023/10/12 09:57:52;;;;;;;14.00;3.70;;;;;;;-145.69;35.75;51812.69;5100390;28;20255;-82
2023/10/12 10:00:29;;;;;;;11.45;3.78;;;;;;;-145.69;36.12;51808.72;5093321;28;20197;-83
2023/10/12 10:03:02;;;;;;;13.60;3.50;;;;;;;-145.69;36.10;51814.66;5094977;28;20205;-82
2023/10/12 10:05:51;;;;;;;5.75;2.92;;;;;;;-145.69;35.32;51830.50;5095786;28;20226;-82
2023/10/12 10:08:19;;;;;;;6.00;2.97;;;;;;;-145.69;35.19;51820.59;5095409;28;20202;-81
2023/10/12 10:10:57;;;;;;;10.85;3.05;;;;;;;-145.69;35.16;51822.59;5083210;28;20205;-82
2023/10/12 10:13:49;;;;;;;8.45;2.92;;;;;;;-145.69;35.00;51812.69;5094204;28;20255;-82
2023/10/12 10:16:17;;;;;;;9.80;3.42;;;;;;;-145.69;35.11;51814.66;5080175;28;20195;-81
2023/10/12 10:18:49;;;;;;;5.88;3.30;;;;;;;-145.69;35.34;51818.63;5074403;28;20198;-83
2023/10/12 10:21:21;;;;;;;7.50;3.28;;;;;;;-145.69;34.82;51810.72;5086687;28;20281;-83
2023/10/12 10:23:52;;;;;;;5.65;2.88;;;;;;;-145.69;35.07;51830.50;5094028;28;20274;-83
2023/10/12 10:26:23;;;;;;;11.60;3.55;;;;;;;-145.69;34.80;51806.75;5093732;28;20198;-83
2023/10/12 10:28:58;;;;;;;11.65;3.28;;;;;;;-145.69;34.59;51800.81;5094276;28;20260;-83
2023/10/12 10:31:26;;;;;;;7.90;3.17;;;;;;;-145.69;34.54;51788.94;5094152;28;20212;-83
2023/10/12 10:33:57;;;;;;;10.02;3.17;;;;;;;-145.69;34.49;51822.59;5094348;28;20247;-83
2023/10/12 10:36:27;;;;;;;12.63;3.35;;;;;;;-145.69;34.16;51786.94;5093615;28;20198;-83
2023/10/12 10:38:54;;;;;;;11.95;3.55;;;;;;;-145.69;34.63;51802.78;5093864;28;20213;-82
2023/10/12 10:41:38;;;;;;;8.95;3.35;;;;;;;-145.69;35.36;51788.94;5093539;28;20657;-83
2023/10/12 10:44:08;;;;;;;8.80;3.10;;;;;;;-145.69;34.66;51784.97;5093697;28;20221;-83
2023/10/12 10:46:43;;;;;;;6.53;2.83;;;;;;;-145.69;33.69;51802.78;5073296;28;20692;-83
2023/10/12 10:49:17;;;;;;;8.65;3.42;;;;;;;-145.69;33.56;51783.00;5073448;28;20298;-83
2023/10/12 10:51:47;;;;;;;11.30;3.65;;;;;;;-145.69;34.49;51808.72;5089268;28;20233;-83
2023/10/12 10:54:19;;;;;;;9.10;2.92;;;;;;;-145.69;32.92;51777.03;5093442;28;20206;-84
2023/10/12 10:56:49;;;;;;;11.63;2.67;;;;;;;-145.69;33.88;51783.00;5094679;28;20206;-81
2023/10/12 10:59:18;;;;;;;7.63;3.58;;;;;;;-145.69;33.13;51814.66;5093741;28;20303;-82
2023/10/12 11:01:49;;;;;;;5.35;3.08;;;;;;;-145.69;33.67;51816.66;5093282;28;20197;-82
2023/10/12 11:04:41;;;;;;;8.30;2.92;;;;;;;-145.69;33.96;51826.56;5090506;28;20225;-81
2023/10/12 11:07:12;;;;;;;7.47;3.15;;;;;;;-145.69;34.04;51824.56;5073531;28;20282;-82
2023/10/12 11:12:31;;;;;;;12.05;3.03;;;;;;;-145.69;34.11;51816.66;5073275;28;20287;-83
2023/10/12 11:15:00;;;;;;;6.55;2.78;;;;;;;-145.69;34.69;51810.72;5079912;28;20244;-83
2023/10/12 11:17:30;;;;;;;11.27;2.55;;;;;;;-145.69;33.25;51816.66;5093543;28;20202;-82
2023/10/12 11:19:57;;;;;;;11.07;2.92;;;;;;;-145.69;33.92;51842.38;5093663;28;20198;-83
2023/10/12 11:22:26;;;;;;;6.00;3.00;;;;;;;-145.69;32.45;51816.66;5092546;28;20216;-83
2023/10/12 11:24:54;;;;;;;8.50;2.60;;;;;;;-145.69;32.73;51826.56;5093418;28;20234;-82
2023/10/12 11:27:31;;;;;;;8.70;2.75;;;;;;;-145.69;32.62;51822.59;5092981;28;20622;-82
2023/10/12 11:30:06;;;;;;;5.53;2.50;;;;;;;-145.69;31.88;51788.94;5094868;28;20202;-82
2023/10/12 11:33:09;;;;;;;12.65;3.20;;;;;;;-145.69;32.01;51792.88;5073529;28;20656;-84
2023/10/12 11:35:38;;;;;;;9.27;3.15;;;;;;;-145.69;32.38;51794.88;5066188;28;20296;-82
2023/10/12 11:38:15;;;;;;;6.90;2.83;;;;;;;-145.69;31.53;51786.94;5094181;28;20232;-82
2023/10/12 11:40:41;;;;;;;8.45;2.70;;;;;;;-145.69;31.55;51790.91;5093653;28;20201;-83
2023/10/12 11:43:09;;;;;;;5.18;2.42;;;;;;;-145.69;31.37;51773.09;5093026;28;20205;-84
2023/10/12 11:45:53;;;;;;;5.10;2.70;;;;;;;-145.69;30.99;51783.00;5093340;28;20655;-84
2023/10/12 11:48:22;;;;;;;6.18;2.25;;;;;;;-145.69;31.03;51810.72;5093835;28;20210;-82
2023/10/12 11:50:50;;;;;;;12.18;2.85;;;;;;;-145.69;30.83;51777.03;5092756;28;20198;-83
2023/10/12 11:53:17;;;;;;;4.55;2.40;;;;;;;-145.69;30.93;51808.72;5093171;28;20213;-83
2023/10/12 11:55:44;;;;;;;7.32;2.88;;;;;;;-145.69;30.74;51814.66;5092687;28;20665;-83
2023/10/12 11:58:13;;;;;;;7.50;2.85;;;;;;;-145.69;31.53;51786.94;5093102;28;20293;-83
2023/10/12 12:00:44;;;;;;;8.50;2.80;;;;;;;-145.69;30.85;51781.00;5092704;28;20660;-83
2023/10/12 12:03:13;;;;;;;7.03;2.90;;;;;;;-145.69;31.02;51769.13;5093275;28;20208;-83
2023/10/12 12:05:41;;;;;;;7.30;2.60;;;;;;;-145.69;30.72;51779.03;5092780;28;20218;-83
2023/10/12 12:08:10;;;;;;;9.48;2.33;;;;;;;-145.69;31.10;51794.88;5092896;28;20197;-84
2023/10/12 12:10:44;;;;;;;7.30;2.60;;;;;;;-145.69;31.40;51781.00;5094760;28;20277;-84
2023/10/12 12:13:12;;;;;;;7.82;2.22;;;;;;;-145.69;31.06;51745.38;5096869;28;20288;-83
2023/10/12 12:15:40;;;;;;;5.07;2.45;;;;;;;-145.69;31.29;51759.22;5096829;28;20708;-84
2023/10/12 12:18:13;;;;;;;6.18;2.70;;;;;;;-145.69;30.39;51751.31;5096953;28;20206;-84